KCLK/CLK METAR and TAF weather

Enter ICAO airport designator
Station Type Date Time Source
KCLK METAR 2020/11/27 13:55 UTC NOAA

KCLK 271355Z AUTO 36006KT 10SM CLR 01/00 A3023 RMK AO2


Station Type Date Time Source
KCLK Decoded METAR 2020/11/27 13:55 UTC NOAA

Clinton, Clinton Regional Airport, OK, United States (KCLK) 35-32-17N 098-55-17W
Nov 27, 2020 - 08:55 AM EST / 2020.11.27 1355 UTC
Wind: from the N (360 degrees) at 7 MPH (6 KT):0
Visibility: 10 mile(s):0
Sky conditions: clear
Temperature: 33 F (1 C)
Windchill: 26 F (-3 C):1
Dew Point: 32 F (0 C)
Relative Humidity: 93%
Pressure (altimeter): 30.23 in. Hg (1023 hPa)
ob: KCLK 271355Z AUTO 36006KT 10SM CLR 01/00 A3023 RMK AO2
cycle: 14

Station Type Date Time Source
KCLK TAF UTC NOAA

Error!

Example: see airport list